Alexandria, Ohio
Current Conditions -  °F | °C
As of 4:38 AM on Monday 24 Nov 2014 (Local Time) from KVTA Reporting Station
Light Rain Light Rain  
Wind Chill: 59°   Ceiling: 2600
Heat Index: 59°   Visibility: 4mi
Dew Point: 54°   Wind: 20mph
Humidity: 83%   Direction: 220°SW
Pressure: 29.36"   Gusts: 30mph
Location:  40.09°N, 82.61°W
Report Text: KVTA 240938Z AUTO 22017G26KT 4SM -RA SCT020 BKN026 OVC038 15/12 A2936 RMK AO2 PK WND 20026/0932 RAB27 P0001 T01500122
Loading
Personal Weather Stations






























Interactive Weather Map New forecast layout! Learn more

10-Day Weather Forecast

Advertisements
Track Severe Weather on mobile